Sequoia National Park, California
Current Conditions -  °F | °C
As of 3:15 PM on Saturday 25 Oct 2014 (Local Time) from KVIS Reporting Station
Clear Clear  
Wind Chill: 79°   Ceiling: Unl
Heat Index: 79°   Visibility: 10mi
Dew Point: 48°   Wind: 9mph
Humidity: 34%   Direction: 210°SSW
Pressure: 30.03"   Gusts: NA
Location:  36.5932°N, 118.838°W
Report Text: KVIS 252215Z 21008KT 10SM CLR 26/09 A3003 RMK AO1
Loading
Personal Weather Stations






























Interactive Weather Map New forecast layout! Learn more

10-Day Weather Forecast

Advertisements
Track Severe Weather on mobile